createdAt,value
2024-04-19T00:03:24.852Z,172.45
2024-04-19T00:05:52.165Z,171.13
2024-04-19T00:08:37.292Z,168.88
2024-04-19T00:11:04.855Z,168.18
2024-04-19T00:13:38.074Z,169.30
2024-04-19T00:16:05.522Z,169.48
2024-04-19T00:18:35.417Z,169.30
2024-04-19T00:21:02.761Z,168.88
2024-04-19T00:23:32.444Z,168.95
2024-04-19T00:26:02.411Z,170.00
2024-04-19T00:28:41.157Z,169.40
2024-04-19T00:31:10.953Z,169.05
2024-04-19T00:33:38.305Z,168.43
2024-04-19T00:36:08.384Z,169.00
2024-04-19T00:38:38.089Z,170.55
2024-04-19T00:41:05.701Z,170.00
2024-04-19T00:43:35.447Z,170.32
2024-04-19T00:46:06.416Z,169.60
2024-04-19T00:48:36.630Z,169.90
2024-04-19T00:51:05.369Z,169.35
2024-04-19T00:53:36.850Z,170.00
2024-04-19T00:56:26.068Z,170.05
2024-04-19T00:58:53.587Z,170.68
2024-04-19T01:01:26.516Z,171.52
2024-04-19T01:03:54.286Z,170.55
2024-04-19T01:06:24.157Z,171.55
2024-04-19T01:08:51.434Z,171.00
2024-04-19T01:11:38.979Z,172.65
2024-04-19T01:14:06.608Z,174.93
2024-04-19T01:16:40.706Z,173.23
2024-04-19T01:19:08.795Z,174.65
2024-04-19T01:21:38.820Z,174.75
2024-04-19T01:24:13.567Z,174.55
2024-04-19T01:26:45.920Z,174.40
2024-04-19T01:29:13.132Z,173.88
2024-04-19T01:31:42.910Z,174.50
2024-04-19T01:34:10.096Z,174.73
2024-04-19T01:36:39.916Z,175.52
2024-04-19T01:39:07.106Z,175.65
2024-04-19T01:41:36.834Z,175.48
2024-04-19T01:44:09.242Z,175.25
2024-04-19T01:46:36.374Z,176.55
2024-04-19T01:49:06.657Z,175.45
2024-04-19T01:51:34.027Z,175.70
2024-04-19T01:54:03.782Z,176.73
2024-04-19T01:56:31.011Z,175.70
2024-04-19T01:59:00.739Z,176.13
2024-04-19T02:01:30.540Z,176.35
2024-04-19T02:04:00.376Z,175.88
2024-04-19T02:06:27.563Z,176.57
2024-04-19T02:08:57.277Z,176.63
2024-04-19T02:11:24.486Z,176.15
2024-04-19T02:13:54.274Z,175.27
2024-04-19T02:16:21.443Z,175.40
2024-04-19T02:18:53.915Z,175.10
2024-04-19T02:21:21.123Z,176.13
2024-04-19T02:23:50.979Z,177.35
2024-04-19T02:26:18.078Z,178.63
2024-04-19T02:29:03.886Z,177.23
2024-04-19T02:31:33.582Z,177.30
2024-04-19T02:34:06.005Z,176.82
2024-04-19T02:36:35.821Z,175.88
2024-04-19T02:39:05.644Z,175.52
2024-04-19T02:41:35.442Z,177.30
2024-04-19T02:44:02.579Z,178.43
2024-04-19T02:46:32.333Z,176.70
2024-04-19T02:49:04.691Z,176.77
2024-04-19T02:51:34.544Z,176.68
2024-04-19T02:54:05.110Z,177.40
2024-04-19T02:56:34.848Z,177.60
2024-04-19T02:59:04.848Z,177.85
2024-04-19T03:01:34.711Z,177.38
2024-04-19T03:04:07.452Z,174.90
2024-04-19T03:06:37.330Z,175.43
2024-04-19T03:09:07.194Z,175.63
2024-04-19T03:11:54.821Z,176.10
2024-04-19T03:14:27.472Z,176.20
2024-04-19T03:16:58.563Z,176.52
2024-04-19T03:19:49.336Z,177.93
2024-04-19T03:22:19.498Z,175.43
2024-04-19T03:24:49.415Z,176.88
2024-04-19T03:27:19.204Z,176.98
2024-04-19T03:29:57.945Z,177.85
2024-04-19T03:32:28.343Z,177.73
2024-04-19T03:35:01.150Z,179.68
2024-04-19T03:37:30.918Z,178.20
2024-04-19T03:40:00.776Z,179.48
2024-04-19T03:42:30.616Z,179.00
2024-04-19T03:45:15.562Z,179.32
2024-04-19T03:47:45.329Z,179.38
2024-04-19T03:50:17.783Z,180.68
2024-04-19T03:52:47.498Z,179.73
2024-04-19T03:55:17.247Z,179.93
2024-04-19T03:57:47.192Z,181.25
2024-04-19T04:00:17.372Z,180.10
2024-04-19T04:02:47.275Z,179.75
2024-04-19T04:05:19.835Z,180.30
2024-04-19T04:07:49.601Z,179.85
2024-04-19T04:10:19.499Z,180.75
2024-04-19T04:12:50.986Z,179.88
2024-04-19T04:15:21.222Z,181.27
2024-04-19T04:17:51.468Z,180.38
2024-04-19T04:20:23.847Z,180.60
2024-04-19T04:22:50.962Z,181.52
2024-04-19T04:25:20.711Z,182.13
2024-04-19T04:27:50.606Z,181.95
2024-04-19T04:30:20.406Z,182.65
2024-04-19T04:32:50.274Z,182.90
2024-04-19T04:35:22.713Z,182.10
2024-04-19T04:37:52.447Z,183.63
2024-04-19T04:40:22.209Z,182.38
2024-04-19T04:42:52.034Z,184.45
2024-04-19T04:45:21.988Z,185.82
2024-04-19T04:47:51.773Z,183.07
2024-04-19T04:50:25.158Z,183.57
2024-04-19T04:52:57.377Z,188.32
2024-04-19T04:55:27.167Z,184.63
2024-04-19T04:57:56.902Z,185.52
2024-04-19T05:00:30.046Z,187.57
2024-04-19T05:03:00.841Z,187.75
2024-04-19T05:05:33.214Z,186.68
2024-04-19T05:08:02.939Z,187.68
2024-04-19T05:10:33.041Z,187.82
2024-04-19T05:13:02.799Z,187.23
2024-04-19T05:15:32.528Z,188.07
2024-04-19T05:18:02.376Z,189.77
2024-04-19T05:20:35.260Z,187.98
2024-04-19T05:23:05.010Z,186.32
2024-04-19T05:25:34.794Z,185.43
2024-04-19T05:28:04.562Z,187.38
2024-04-19T05:30:34.361Z,187.75
2024-04-19T05:33:06.895Z,188.20
2024-04-19T05:35:39.338Z,188.43
2024-04-19T05:38:09.090Z,188.85
2024-04-19T05:40:38.866Z,188.77
2024-04-19T05:43:08.563Z,188.82
2024-04-19T05:45:38.933Z,189.73
2024-04-19T05:48:09.518Z,190.70
2024-04-19T05:50:43.791Z,188.65
2024-04-19T05:53:13.602Z,190.82
2024-04-19T05:55:43.293Z,190.68
2024-04-19T05:58:13.068Z,189.93
2024-04-19T06:00:42.954Z,191.45
2024-04-19T06:03:12.825Z,193.27
2024-04-19T06:05:47.285Z,191.48
2024-04-19T06:08:17.715Z,191.80
2024-04-19T06:10:47.428Z,192.68
2024-04-19T06:13:17.345Z,194.57
2024-04-19T06:15:48.213Z,192.50
2024-04-19T06:18:18.205Z,195.32
2024-04-19T06:20:50.696Z,195.15
2024-04-19T06:23:20.490Z,195.15
2024-04-19T06:25:50.235Z,197.38
2024-04-19T06:28:19.993Z,198.85
2024-04-19T06:30:49.801Z,199.68
2024-04-19T06:33:19.542Z,200.20
2024-04-19T06:35:51.883Z,200.02
2024-04-19T06:38:21.615Z,200.95
2024-04-19T06:40:51.330Z,202.65
2024-04-19T06:43:21.100Z,203.88
2024-04-19T06:45:51.044Z,204.32
2024-04-19T06:48:20.962Z,205.38
2024-04-19T06:50:53.327Z,204.35
2024-04-19T06:53:23.066Z,207.02
2024-04-19T06:55:54.020Z,206.95
2024-04-19T06:58:23.960Z,208.05
2024-04-19T07:01:06.183Z,208.20
2024-04-19T07:03:43.522Z,209.20
2024-04-19T07:06:24.113Z,213.10
2024-04-19T07:09:00.884Z,213.43
2024-04-19T07:11:30.699Z,216.20
2024-04-19T07:14:00.443Z,216.32
2024-04-19T07:16:30.280Z,217.18
2024-04-19T07:19:00.054Z,220.30
2024-04-19T07:21:32.485Z,220.07
2024-04-19T07:24:02.273Z,220.75
2024-04-19T07:26:35.536Z,217.80
2024-04-19T07:29:05.268Z,217.73
2024-04-19T07:31:35.272Z,218.23
2024-04-19T07:34:04.989Z,219.95
2024-04-19T07:36:37.433Z,219.43
2024-04-19T07:39:07.784Z,221.98
2024-04-19T07:41:37.590Z,222.70
2024-04-19T07:44:07.600Z,227.25
2024-04-19T07:46:37.437Z,248.30
2024-04-19T07:49:07.635Z,228.15
2024-04-19T07:51:40.080Z,229.05
2024-04-19T07:54:10.359Z,224.75
2024-04-19T07:56:42.895Z,223.65
2024-04-19T07:59:12.724Z,223.85
2024-04-19T08:01:42.588Z,225.02
2024-04-19T08:04:12.391Z,224.50
2024-04-19T08:06:44.795Z,224.75
2024-04-19T08:09:15.116Z,222.32
2024-04-19T08:11:44.934Z,219.45
2024-04-19T08:14:14.762Z,215.10
2024-04-19T08:16:44.600Z,219.55
2024-04-19T08:19:14.317Z,223.85
2024-04-19T08:21:46.702Z,225.05
2024-04-19T08:24:16.433Z,227.27
2024-04-19T08:26:46.212Z,229.60
2024-04-19T08:29:22.305Z,231.95
2024-04-19T08:31:59.631Z,238.57
2024-04-19T08:34:29.496Z,245.07
2024-04-19T08:37:02.680Z,251.77
2024-04-19T08:39:32.463Z,235.18
2024-04-19T08:42:07.764Z,243.68
2024-04-19T08:44:37.684Z,249.13
2024-04-19T08:47:09.593Z,251.50
2024-04-19T08:49:42.001Z,254.10
2024-04-19T08:52:30.260Z,257.98
2024-04-19T08:55:07.368Z,256.63
2024-04-19T08:57:38.466Z,258.17
2024-04-19T09:00:13.984Z,259.13
2024-04-19T09:02:45.542Z,262.58
2024-04-19T09:05:12.782Z,267.77
2024-04-19T09:07:45.123Z,272.63
2024-04-19T09:10:16.009Z,278.63
2024-04-19T09:12:45.885Z,285.73
2024-04-19T09:15:15.760Z,280.10
2024-04-19T09:17:45.514Z,178.10
2024-04-19T09:20:15.993Z,146.32
2024-04-19T09:22:48.559Z,146.00
2024-04-19T09:25:18.872Z,150.27
2024-04-19T09:27:48.811Z,163.88
2024-04-19T09:30:20.474Z,171.10
2024-04-19T09:32:50.842Z,182.25
2024-04-19T09:35:21.428Z,172.18
2024-04-19T09:37:55.347Z,171.85
2024-04-19T09:40:29.450Z,167.07
2024-04-19T09:43:02.864Z,168.35
2024-04-19T09:45:35.915Z,172.55
2024-04-19T09:48:07.032Z,178.98
2024-04-19T09:50:47.626Z,188.63
2024-04-19T09:53:50.755Z,217.80
2024-04-19T09:56:30.444Z,186.65
2024-04-19T09:59:02.512Z,199.43
2024-04-19T10:01:32.784Z,194.05
2024-04-19T10:04:04.837Z,191.88
2024-04-19T10:06:39.660Z,190.75
2024-04-19T10:09:17.260Z,188.27
2024-04-19T10:11:49.178Z,187.52
2024-04-19T10:14:19.756Z,187.63
2024-04-19T10:16:49.559Z,187.60
2024-04-19T10:19:20.582Z,188.93
2024-04-19T10:21:56.191Z,187.18
2024-04-19T10:24:29.640Z,187.65
2024-04-19T10:27:00.530Z,186.43
2024-04-19T10:29:30.439Z,187.50
2024-04-19T10:32:00.415Z,188.10
2024-04-19T10:34:30.935Z,184.15
2024-04-19T10:37:00.636Z,184.25
2024-04-19T10:39:33.040Z,184.68
2024-04-19T10:42:02.722Z,183.90
2024-04-19T10:44:32.629Z,181.80
2024-04-19T10:47:02.458Z,182.43
2024-04-19T10:49:32.338Z,181.85
2024-04-19T10:52:03.229Z,183.30
2024-04-19T10:54:35.608Z,182.68
2024-04-19T10:57:05.481Z,184.32
2024-04-19T10:59:35.210Z,182.45
2024-04-19T11:02:05.206Z,181.88
2024-04-19T11:04:35.043Z,184.52
2024-04-19T11:07:04.928Z,188.05
2024-04-19T11:09:37.744Z,191.18
2024-04-19T11:12:08.388Z,191.43
2024-04-19T11:14:39.134Z,190.90
2024-04-19T11:17:08.879Z,188.80
2024-04-19T11:19:38.684Z,189.18
2024-04-19T11:22:09.773Z,188.80
2024-04-19T11:24:42.515Z,190.68
2024-04-19T11:27:13.294Z,189.82
2024-04-19T11:29:43.288Z,190.90
2024-04-19T11:32:13.141Z,190.75
2024-04-19T11:34:48.277Z,193.10
2024-04-19T11:37:19.515Z,191.43
2024-04-19T11:39:51.950Z,191.70
2024-04-19T11:42:23.625Z,191.55
2024-04-19T11:44:53.448Z,193.45
2024-04-19T11:47:23.385Z,193.95
2024-04-19T11:49:53.654Z,194.68
2024-04-19T11:52:23.587Z,198.23
2024-04-19T11:54:55.986Z,195.35
2024-04-19T11:57:25.886Z,197.95
2024-04-19T11:59:55.673Z,195.13
2024-04-19T12:02:25.493Z,196.52
2024-04-19T12:04:55.333Z,199.98
2024-04-19T12:07:25.578Z,200.07
2024-04-19T12:09:58.181Z,201.40
2024-04-19T12:15:44.576Z,199.73
2024-04-19T12:17:50.841Z,196.57
2024-04-19T12:20:29.798Z,199.80
2024-04-19T12:23:11.281Z,202.20
2024-04-19T12:25:46.116Z,202.95
2024-04-19T12:28:16.413Z,202.48
2024-04-19T12:30:46.771Z,203.90
2024-04-19T12:33:18.087Z,202.85
2024-04-19T12:35:48.126Z,203.55
2024-04-19T12:38:18.351Z,203.85
2024-04-19T12:40:51.528Z,206.77
2024-04-19T12:43:21.531Z,203.02
2024-04-19T12:45:52.160Z,203.88
2024-04-19T12:48:22.585Z,201.85
2024-04-19T12:50:52.498Z,203.18
2024-04-19T12:53:22.209Z,202.23
2024-04-19T12:55:55.562Z,202.80
2024-04-19T12:58:26.067Z,205.85
2024-04-19T13:00:58.309Z,207.23
2024-04-19T13:03:28.214Z,207.25
2024-04-19T13:05:58.025Z,206.65
2024-04-19T13:08:27.951Z,207.88
2024-04-19T13:11:00.427Z,208.57
2024-04-19T13:13:30.422Z,209.48
2024-04-19T13:16:00.530Z,208.30
2024-04-19T13:18:30.353Z,208.27
2024-04-19T13:21:00.117Z,212.88
2024-04-19T13:23:29.822Z,214.88
2024-04-19T13:26:02.138Z,213.60
2024-04-19T13:28:31.885Z,212.70
2024-04-19T13:31:01.687Z,212.40
2024-04-19T13:33:31.497Z,211.52
2024-04-19T13:36:02.342Z,212.35
2024-04-19T13:38:32.176Z,212.35
2024-04-19T13:41:04.558Z,212.43
2024-04-19T13:43:34.297Z,213.50
2024-04-19T13:46:04.600Z,213.07
2024-04-19T13:48:38.887Z,214.55
2024-04-19T13:51:09.887Z,217.73
2024-04-19T13:53:42.603Z,218.15
2024-04-19T13:56:15.653Z,217.05
2024-04-19T13:58:45.780Z,217.05
2024-04-19T14:01:17.122Z,218.27
2024-04-19T14:03:47.915Z,216.82
2024-04-19T14:06:17.693Z,217.13
2024-04-19T14:08:49.968Z,217.55
2024-04-19T14:11:22.542Z,217.82
2024-04-19T14:13:52.505Z,219.85
2024-04-19T14:16:24.513Z,220.90
2024-04-19T14:18:55.048Z,222.05
2024-04-19T14:21:25.754Z,221.52
2024-04-19T14:23:55.606Z,224.52
2024-04-19T14:26:28.074Z,221.25
2024-04-19T14:28:57.872Z,224.23
2024-04-19T14:31:27.628Z,224.90
2024-04-19T14:33:57.450Z,226.25
2024-04-19T14:36:27.349Z,223.75
2024-04-19T14:38:57.914Z,228.23
2024-04-19T14:41:32.068Z,231.65
2024-04-19T14:44:01.901Z,234.05
2024-04-19T14:46:31.702Z,231.30
2024-04-19T14:49:02.171Z,228.30
2024-04-19T14:51:31.992Z,227.02
2024-04-19T14:54:01.968Z,229.38
2024-04-19T14:56:34.318Z,232.10
2024-04-19T14:59:11.799Z,232.35
2024-04-19T15:01:43.826Z,231.18
2024-04-19T15:04:13.716Z,234.80
2024-04-19T15:06:43.763Z,233.80
2024-04-19T15:09:13.526Z,237.32
2024-04-19T15:11:45.935Z,238.57
2024-04-19T15:14:15.705Z,238.57
2024-04-19T15:16:45.786Z,243.13
2024-04-19T15:19:15.787Z,257.83
2024-04-19T15:21:45.527Z,240.45
2024-04-19T15:24:15.283Z,146.02
2024-04-19T15:26:48.468Z,141.77
2024-04-19T15:29:18.288Z,145.90
2024-04-19T15:31:48.302Z,159.90
2024-04-19T15:34:40.496Z,177.40
2024-04-19T15:37:08.904Z,185.50
2024-04-19T15:39:38.916Z,179.07
2024-04-19T15:42:13.862Z,161.55
2024-04-19T15:44:44.550Z,160.32
2024-04-19T15:47:15.459Z,164.30
2024-04-19T15:52:22.094Z,162.23
2024-04-19T15:54:53.800Z,160.18
2024-04-19T15:57:27.967Z,160.27
2024-04-19T15:59:58.095Z,159.57
2024-04-19T16:02:28.240Z,159.45
2024-04-19T16:04:58.220Z,159.90
2024-04-19T16:07:27.952Z,158.90
2024-04-19T16:09:57.783Z,158.88
2024-04-19T16:12:30.233Z,158.00
2024-04-19T16:15:01.698Z,158.57
2024-04-19T16:17:32.155Z,157.35
2024-04-19T16:20:03.613Z,161.30
2024-04-19T16:22:34.504Z,163.48
2024-04-19T16:25:04.408Z,160.73
2024-04-19T16:27:36.997Z,158.98
2024-04-19T16:30:08.904Z,160.60
2024-04-19T16:32:38.767Z,169.52
2024-04-19T16:35:08.997Z,167.75
2024-04-19T16:37:38.723Z,166.57
2024-04-19T16:40:10.133Z,165.55
2024-04-19T16:42:42.543Z,164.45
2024-04-19T16:45:12.321Z,163.20
2024-04-19T16:47:42.321Z,162.48
2024-04-19T16:50:12.057Z,163.23
2024-04-19T16:52:42.805Z,162.77
2024-04-19T16:55:13.330Z,161.13
2024-04-19T16:57:45.890Z,156.75
2024-04-19T17:00:15.481Z,153.05
2024-04-19T17:02:45.209Z,152.55
2024-04-19T17:05:15.028Z,153.05
2024-04-19T17:07:44.758Z,154.05
2024-04-19T17:10:14.508Z,155.38
2024-04-19T17:12:46.919Z,154.85
2024-04-19T17:15:17.021Z,155.80
2024-04-19T17:17:46.858Z,157.48
2024-04-19T17:20:16.707Z,157.85
2024-04-19T17:22:46.394Z,156.05
2024-04-19T17:25:16.602Z,156.95
2024-04-19T17:27:50.543Z,156.98
2024-04-19T17:30:23.251Z,157.30
2024-04-19T17:32:53.214Z,155.60
2024-04-19T17:35:23.138Z,155.95
2024-04-19T17:37:52.877Z,155.73
2024-04-19T17:40:22.710Z,154.50
2024-04-19T17:42:55.870Z,156.30
2024-04-19T17:45:25.703Z,155.32
2024-04-19T17:47:55.909Z,155.15
2024-04-19T17:50:25.714Z,156.05
2024-04-19T17:52:55.759Z,155.20
2024-04-19T17:55:25.593Z,157.55
2024-04-19T17:57:57.944Z,156.65
2024-04-19T18:00:28.755Z,157.05
2024-04-19T18:02:58.615Z,156.65
2024-04-19T18:05:28.383Z,157.10
2024-04-19T18:07:58.102Z,157.07
2024-04-19T18:10:27.998Z,128.53
2024-04-19T18:13:00.920Z,144.68
2024-04-19T18:18:04.178Z,155.02
2024-04-19T18:23:04.592Z,158.43
2024-04-19T18:25:34.303Z,158.60
2024-04-19T18:28:07.090Z,158.38
2024-04-19T18:35:39.087Z,165.50
2024-04-19T18:38:10.314Z,166.52
2024-04-19T18:40:42.268Z,162.48
2024-04-19T18:48:17.443Z,167.30
2024-04-19T18:53:17.199Z,166.30
2024-04-19T18:58:19.280Z,165.18
2024-04-19T19:03:18.908Z,165.60
2024-04-19T19:05:55.210Z,166.18
2024-04-19T19:08:24.991Z,163.77
2024-04-19T19:10:54.772Z,162.98
2024-04-19T19:13:29.029Z,161.85
2024-04-19T19:15:59.068Z,164.13
2024-04-19T19:18:29.398Z,160.68
2024-04-19T19:20:59.344Z,160.90
2024-04-19T19:23:29.047Z,161.63
2024-04-19T19:26:01.511Z,160.93
2024-04-19T19:33:34.942Z,165.98
2024-04-19T19:36:07.115Z,163.15
2024-04-19T19:38:38.466Z,162.15
2024-04-19T19:41:08.295Z,162.40
2024-04-19T19:43:40.787Z,161.95
2024-04-19T19:46:11.756Z,160.77
2024-04-19T19:48:42.571Z,161.98
2024-04-19T19:53:41.978Z,165.15
2024-04-19T19:56:14.306Z,162.07
2024-04-19T19:58:49.215Z,162.43
2024-04-19T20:01:35.682Z,161.73
2024-04-19T20:04:21.871Z,135.13
2024-04-19T20:06:52.984Z,121.03
2024-04-19T20:09:24.072Z,145.40
2024-04-19T20:11:54.960Z,152.40
2024-04-19T20:14:27.305Z,156.73
2024-04-19T20:16:57.186Z,157.77
2024-04-19T20:19:26.997Z,158.13
2024-04-19T20:21:56.996Z,159.00
2024-04-19T20:24:26.874Z,159.52
2024-04-19T20:26:56.632Z,160.40
2024-04-19T20:29:30.337Z,160.85
2024-04-19T20:34:32.787Z,162.85
2024-04-19T20:37:02.595Z,162.20
2024-04-19T20:39:32.381Z,161.35
2024-04-19T20:42:02.124Z,160.48
2024-04-19T20:44:34.443Z,159.85
2024-04-19T20:47:04.169Z,159.85
2024-04-19T20:49:33.936Z,158.75
2024-04-19T20:54:33.408Z,162.38
2024-04-19T20:57:03.543Z,162.30
2024-04-19T20:59:35.852Z,160.98
2024-04-19T21:02:05.731Z,161.88
2024-04-19T21:04:36.315Z,160.48
2024-04-19T21:07:06.097Z,159.80
2024-04-19T21:09:36.113Z,161.77
2024-04-19T21:12:06.047Z,160.85
2024-04-19T21:14:38.631Z,162.50
2024-04-19T21:17:08.415Z,163.07
2024-04-19T21:19:39.940Z,161.80
2024-04-19T21:22:09.888Z,161.30
2024-04-19T21:24:39.664Z,161.35
2024-04-19T21:27:10.574Z,161.82
2024-04-19T21:32:12.619Z,163.77
2024-04-19T21:34:44.743Z,163.13
2024-04-19T21:37:14.829Z,161.02
2024-04-19T21:39:44.635Z,160.93
2024-04-19T21:42:15.914Z,162.35
2024-04-19T21:44:50.573Z,162.30
2024-04-19T21:47:20.367Z,160.85
2024-04-19T21:49:50.265Z,163.88
2024-04-19T21:52:20.111Z,162.48
2024-04-19T21:54:49.906Z,161.88
2024-04-19T21:57:19.725Z,162.43
2024-04-19T21:59:52.240Z,162.20
2024-04-19T22:02:22.124Z,161.30
2024-04-19T22:12:22.555Z,165.90
2024-04-19T22:14:57.984Z,166.20
2024-04-19T22:17:28.350Z,132.43
2024-04-19T22:19:58.276Z,148.23
2024-04-19T22:22:28.924Z,151.55
2024-04-19T22:24:58.814Z,153.45
2024-04-19T22:27:28.622Z,155.15
2024-04-19T22:32:30.824Z,159.15
2024-04-19T22:35:00.618Z,155.90
2024-04-19T22:37:32.099Z,156.30
2024-04-19T22:40:02.030Z,158.23
2024-04-19T22:42:33.198Z,157.60
2024-04-19T22:45:06.145Z,158.93
2024-04-19T22:47:36.024Z,157.13
2024-04-19T22:50:05.833Z,156.40
2024-04-19T22:52:35.575Z,156.02
2024-04-19T22:55:05.457Z,156.68
2024-04-19T22:57:35.315Z,158.43
2024-04-19T23:00:08.892Z,157.02
2024-04-19T23:02:38.669Z,154.93
2024-04-19T23:05:28.463Z,152.88
2024-04-19T23:07:58.238Z,155.05
2024-04-19T23:10:27.990Z,153.10
2024-04-19T23:12:57.857Z,152.82
2024-04-19T23:15:30.367Z,153.13
2024-04-19T23:18:00.254Z,152.55
2024-04-19T23:20:30.037Z,153.32
2024-04-19T23:23:00.236Z,154.27
2024-04-19T23:25:29.950Z,153.07
2024-04-19T23:27:59.825Z,152.80
2024-04-19T23:30:32.291Z,153.82
2024-04-19T23:33:02.149Z,154.40
2024-04-19T23:35:31.956Z,154.65
2024-04-19T23:38:01.692Z,154.43
2024-04-19T23:40:31.429Z,154.75
2024-04-19T23:43:01.179Z,154.20
2024-04-19T23:45:34.985Z,155.70
2024-04-19T23:48:05.060Z,156.02
2024-04-19T23:50:35.811Z,155.55
2024-04-19T23:53:05.993Z,156.25
2024-04-19T23:55:36.650Z,156.63
2024-04-19T23:58:06.474Z,155.30
